sensor_id;sensor_type;location;lat;lon;timestamp;temperature;humidity
9179;DHT22;4624;48.126;11.546;2022-07-29T00:01:16;21.30;85.00
9179;DHT22;4624;48.126;11.546;2022-07-29T00:03:43;21.30;85.20
9179;DHT22;4624;48.126;11.546;2022-07-29T00:06:10;21.30;85.80
9179;DHT22;4624;48.126;11.546;2022-07-29T00:08:38;21.20;86.10
9179;DHT22;4624;48.126;11.546;2022-07-29T00:11:05;21.20;86.70
9179;DHT22;4624;48.126;11.546;2022-07-29T00:13:31;21.20;87.10
9179;DHT22;4624;48.126;11.546;2022-07-29T00:15:59;21.20;87.70
9179;DHT22;4624;48.126;11.546;2022-07-29T00:18:25;21.10;88.00
9179;DHT22;4624;48.126;11.546;2022-07-29T00:20:52;21.10;88.70
9179;DHT22;4624;48.126;11.546;2022-07-29T00:23:19;21.10;89.30
9179;DHT22;4624;48.126;11.546;2022-07-29T00:25:47;21.10;89.60
9179;DHT22;4624;48.126;11.546;2022-07-29T00:28:14;21.10;90.10
9179;DHT22;4624;48.126;11.546;2022-07-29T00:30:41;21.10;90.20
9179;DHT22;4624;48.126;11.546;2022-07-29T00:33:08;21.00;90.30
9179;DHT22;4624;48.126;11.546;2022-07-29T00:35:35;21.10;90.20
9179;DHT22;4624;48.126;11.546;2022-07-29T00:38:11;21.10;90.10
9179;DHT22;4624;48.126;11.546;2022-07-29T00:40:38;21.10;89.80
9179;DHT22;4624;48.126;11.546;2022-07-29T00:43:07;21.10;89.50
9179;DHT22;4624;48.126;11.546;2022-07-29T00:45:34;21.10;89.30
9179;DHT22;4624;48.126;11.546;2022-07-29T00:48:01;21.20;89.10
9179;DHT22;4624;48.126;11.546;2022-07-29T00:50:29;21.20;88.70
9179;DHT22;4624;48.126;11.546;2022-07-29T00:52:55;21.30;88.40
9179;DHT22;4624;48.126;11.546;2022-07-29T00:55:22;21.30;88.20
9179;DHT22;4624;48.126;11.546;2022-07-29T00:57:49;21.40;88.00
9179;DHT22;4624;48.126;11.546;2022-07-29T01:00:20;21.40;87.60
9179;DHT22;4624;48.126;11.546;2022-07-29T01:02:47;21.40;87.10
9179;DHT22;4624;48.126;11.546;2022-07-29T01:05:16;21.40;86.50
9179;DHT22;4624;48.126;11.546;2022-07-29T01:07:44;21.40;86.00
9179;DHT22;4624;48.126;11.546;2022-07-29T01:10:13;21.40;85.50
9179;DHT22;4624;48.126;11.546;2022-07-29T01:12:42;21.40;85.30
9179;DHT22;4624;48.126;11.546;2022-07-29T01:15:10;21.50;85.00
9179;DHT22;4624;48.126;11.546;2022-07-29T01:17:43;21.50;84.30
9179;DHT22;4624;48.126;11.546;2022-07-29T01:20:16;21.50;84.10
9179;DHT22;4624;48.126;11.546;2022-07-29T01:23:07;21.60;83.70
9179;DHT22;4624;48.126;11.546;2022-07-29T01:28:49;21.50;83.30
9179;DHT22;4624;48.126;11.546;2022-07-29T01:31:22;21.60;83.00
9179;DHT22;4624;48.126;11.546;2022-07-29T01:33:57;21.60;83.00
9179;DHT22;4624;48.126;11.546;2022-07-29T01:36:31;21.60;83.00
9179;DHT22;4624;48.126;11.546;2022-07-29T01:39:05;21.50;82.70
9179;DHT22;4624;48.126;11.546;2022-07-29T01:41:34;21.50;82.80
9179;DHT22;4624;48.126;11.546;2022-07-29T01:44:13;21.50;82.70
9179;DHT22;4624;48.126;11.546;2022-07-29T01:46:46;21.50;82.20
9179;DHT22;4624;48.126;11.546;2022-07-29T01:49:19;21.40;82.10
9179;DHT22;4624;48.126;11.546;2022-07-29T01:51:50;21.40;82.10
9179;DHT22;4624;48.126;11.546;2022-07-29T01:54:21;21.40;82.10
9179;DHT22;4624;48.126;11.546;2022-07-29T01:56:53;21.50;82.20
9179;DHT22;4624;48.126;11.546;2022-07-29T01:59:23;21.50;82.20
9179;DHT22;4624;48.126;11.546;2022-07-29T02:01:53;21.40;82.40
9179;DHT22;4624;48.126;11.546;2022-07-29T02:04:20;21.40;82.40
9179;DHT22;4624;48.126;11.546;2022-07-29T02:06:50;21.30;82.40
9179;DHT22;4624;48.126;11.546;2022-07-29T02:09:17;21.40;82.70
9179;DHT22;4624;48.126;11.546;2022-07-29T02:11:48;21.40;82.80
9179;DHT22;4624;48.126;11.546;2022-07-29T02:14:18;21.40;82.90
9179;DHT22;4624;48.126;11.546;2022-07-29T02:16:47;21.50;83.00
9179;DHT22;4624;48.126;11.546;2022-07-29T02:19:17;21.40;82.80
9179;DHT22;4624;48.126;11.546;2022-07-29T02:21:46;21.40;83.20
9179;DHT22;4624;48.126;11.546;2022-07-29T02:24:14;21.40;83.50
9179;DHT22;4624;48.126;11.546;2022-07-29T02:26:43;21.40;83.60
9179;DHT22;4624;48.126;11.546;2022-07-29T02:29:12;21.40;83.90
9179;DHT22;4624;48.126;11.546;2022-07-29T02:31:41;21.30;84.00
9179;DHT22;4624;48.126;11.546;2022-07-29T02:34:10;21.30;84.20
9179;DHT22;4624;48.126;11.546;2022-07-29T02:36:38;21.30;84.50
9179;DHT22;4624;48.126;11.546;2022-07-29T02:39:06;21.30;85.50
9179;DHT22;4624;48.126;11.546;2022-07-29T02:41:40;21.20;84.80
9179;DHT22;4624;48.126;11.546;2022-07-29T02:44:10;21.20;85.10
9179;DHT22;4624;48.126;11.546;2022-07-29T02:46:43;21.30;85.30
9179;DHT22;4624;48.126;11.546;2022-07-29T02:49:18;21.20;85.20
9179;DHT22;4624;48.126;11.546;2022-07-29T02:51:51;21.20;85.40
9179;DHT22;4624;48.126;11.546;2022-07-29T02:54:23;21.10;85.40
9179;DHT22;4624;48.126;11.546;2022-07-29T02:56:54;21.10;85.70
9179;DHT22;4624;48.126;11.546;2022-07-29T02:59:26;21.10;85.80
9179;DHT22;4624;48.126;11.546;2022-07-29T03:01:55;21.10;85.90
9179;DHT22;4624;48.126;11.546;2022-07-29T03:04:27;21.10;86.00
9179;DHT22;4624;48.126;11.546;2022-07-29T03:06:55;21.10;86.20
9179;DHT22;4624;48.126;11.546;2022-07-29T03:09:25;21.10;86.40
9179;DHT22;4624;48.126;11.546;2022-07-29T03:11:53;21.10;86.50
9179;DHT22;4624;48.126;11.546;2022-07-29T03:14:21;21.00;86.60
9179;DHT22;4624;48.126;11.546;2022-07-29T03:16:48;21.00;86.80
9179;DHT22;4624;48.126;11.546;2022-07-29T03:19:16;20.90;87.00
9179;DHT22;4624;48.126;11.546;2022-07-29T03:21:44;20.90;87.20
9179;DHT22;4624;48.126;11.546;2022-07-29T03:24:24;20.90;87.50
9179;DHT22;4624;48.126;11.546;2022-07-29T03:26:51;20.80;87.80
9179;DHT22;4624;48.126;11.546;2022-07-29T03:29:18;20.90;89.10
9179;DHT22;4624;48.126;11.546;2022-07-29T03:31:45;20.80;88.40
9179;DHT22;4624;48.126;11.546;2022-07-29T03:34:12;20.80;88.70
9179;DHT22;4624;48.126;11.546;2022-07-29T03:36:38;20.80;88.90
9179;DHT22;4624;48.126;11.546;2022-07-29T03:41:48;20.60;89.50
9179;DHT22;4624;48.126;11.546;2022-07-29T03:44:16;20.50;90.20
9179;DHT22;4624;48.126;11.546;2022-07-29T03:46:44;20.50;89.90
9179;DHT22;4624;48.126;11.546;2022-07-29T03:49:15;20.50;90.10
9179;DHT22;4624;48.126;11.546;2022-07-29T03:51:43;20.50;90.20
9179;DHT22;4624;48.126;11.546;2022-07-29T03:54:10;20.50;90.40
9179;DHT22;4624;48.126;11.546;2022-07-29T03:56:39;20.50;90.60
9179;DHT22;4624;48.126;11.546;2022-07-29T03:59:08;20.40;90.60
9179;DHT22;4624;48.126;11.546;2022-07-29T04:01:37;20.50;90.80
9179;DHT22;4624;48.126;11.546;2022-07-29T04:04:05;20.40;91.00
9179;DHT22;4624;48.126;11.546;2022-07-29T04:06:41;20.40;91.10
9179;DHT22;4624;48.126;11.546;2022-07-29T04:09:08;20.40;91.10
9179;DHT22;4624;48.126;11.546;2022-07-29T04:11:36;20.30;91.10
9179;DHT22;4624;48.126;11.546;2022-07-29T04:14:03;20.30;91.30
9179;DHT22;4624;48.126;11.546;2022-07-29T04:16:31;20.30;91.40
9179;DHT22;4624;48.126;11.546;2022-07-29T04:18:58;20.30;91.40
9179;DHT22;4624;48.126;11.546;2022-07-29T04:21:25;20.30;91.50
9179;DHT22;4624;48.126;11.546;2022-07-29T04:23:52;20.30;91.80
9179;DHT22;4624;48.126;11.546;2022-07-29T04:26:20;20.30;91.60
9179;DHT22;4624;48.126;11.546;2022-07-29T04:28:47;20.30;91.80
9179;DHT22;4624;48.126;11.546;2022-07-29T04:31:14;20.40;91.90
9179;DHT22;4624;48.126;11.546;2022-07-29T04:33:42;20.40;92.10
9179;DHT22;4624;48.126;11.546;2022-07-29T04:36:09;20.40;92.10
9179;DHT22;4624;48.126;11.546;2022-07-29T04:38:37;20.50;92.00
9179;DHT22;4624;48.126;11.546;2022-07-29T04:41:04;20.50;92.00
9179;DHT22;4624;48.126;11.546;2022-07-29T04:43:32;20.60;91.90
9179;DHT22;4624;48.126;11.546;2022-07-29T04:45:59;20.70;92.00
9179;DHT22;4624;48.126;11.546;2022-07-29T04:48:26;20.80;92.00
9179;DHT22;4624;48.126;11.546;2022-07-29T04:50:55;20.90;91.90
9179;DHT22;4624;48.126;11.546;2022-07-29T04:53:22;21.00;91.80
9179;DHT22;4624;48.126;11.546;2022-07-29T04:55:49;21.10;91.40
9179;DHT22;4624;48.126;11.546;2022-07-29T04:58:16;21.20;91.50
9179;DHT22;4624;48.126;11.546;2022-07-29T05:00:43;21.20;91.30
9179;DHT22;4624;48.126;11.546;2022-07-29T05:03:09;21.30;91.30
9179;DHT22;4624;48.126;11.546;2022-07-29T05:05:36;21.40;91.30
9179;DHT22;4624;48.126;11.546;2022-07-29T05:08:05;21.40;91.30
9179;DHT22;4624;48.126;11.546;2022-07-29T05:10:32;21.40;91.20
9179;DHT22;4624;48.126;11.546;2022-07-29T05:13:01;21.40;91.10
9179;DHT22;4624;48.126;11.546;2022-07-29T05:15:27;21.50;91.10
9179;DHT22;4624;48.126;11.546;2022-07-29T05:17:54;21.40;91.10
9179;DHT22;4624;48.126;11.546;2022-07-29T05:20:21;21.40;91.00
9179;DHT22;4624;48.126;11.546;2022-07-29T05:22:51;21.40;91.10
9179;DHT22;4624;48.126;11.546;2022-07-29T05:25:19;21.40;91.10
9179;DHT22;4624;48.126;11.546;2022-07-29T05:27:46;21.40;91.20
9179;DHT22;4624;48.126;11.546;2022-07-29T05:30:13;21.40;91.20
9179;DHT22;4624;48.126;11.546;2022-07-29T05:32:40;21.50;91.30
9179;DHT22;4624;48.126;11.546;2022-07-29T05:35:07;21.70;91.20
9179;DHT22;4624;48.126;11.546;2022-07-29T05:37:34;21.80;90.80
9179;DHT22;4624;48.126;11.546;2022-07-29T05:40:01;21.90;90.60
9179;DHT22;4624;48.126;11.546;2022-07-29T05:42:30;22.10;90.60
9179;DHT22;4624;48.126;11.546;2022-07-29T05:44:57;22.20;90.40
9179;DHT22;4624;48.126;11.546;2022-07-29T05:47:24;22.30;90.20
9179;DHT22;4624;48.126;11.546;2022-07-29T05:49:50;22.50;90.20
9179;DHT22;4624;48.126;11.546;2022-07-29T05:52:17;22.50;90.20
9179;DHT22;4624;48.126;11.546;2022-07-29T05:54:44;22.60;90.00
9179;DHT22;4624;48.126;11.546;2022-07-29T05:57:15;22.70;90.30
9179;DHT22;4624;48.126;11.546;2022-07-29T05:59:43;22.80;89.80
9179;DHT22;4624;48.126;11.546;2022-07-29T06:02:10;23.00;88.90
9179;DHT22;4624;48.126;11.546;2022-07-29T06:04:37;23.10;87.80
9179;DHT22;4624;48.126;11.546;2022-07-29T06:07:04;23.30;87.60
9179;DHT22;4624;48.126;11.546;2022-07-29T06:09:31;23.50;87.30
9179;DHT22;4624;48.126;11.546;2022-07-29T06:11:58;23.60;86.70
9179;DHT22;4624;48.126;11.546;2022-07-29T06:14:25;23.70;86.20
9179;DHT22;4624;48.126;11.546;2022-07-29T06:16:55;23.80;85.10
9179;DHT22;4624;48.126;11.546;2022-07-29T06:19:21;23.80;84.70
9179;DHT22;4624;48.126;11.546;2022-07-29T06:21:48;23.90;84.80
9179;DHT22;4624;48.126;11.546;2022-07-29T06:24:15;24.10;83.60
9179;DHT22;4624;48.126;11.546;2022-07-29T06:26:42;24.00;83.60
9179;DHT22;4624;48.126;11.546;2022-07-29T06:29:09;24.10;83.60
9179;DHT22;4624;48.126;11.546;2022-07-29T06:31:37;24.30;83.20
9179;DHT22;4624;48.126;11.546;2022-07-29T06:34:05;24.40;83.30
9179;DHT22;4624;48.126;11.546;2022-07-29T06:36:34;24.50;82.50
9179;DHT22;4624;48.126;11.546;2022-07-29T06:39:01;24.60;82.00
9179;DHT22;4624;48.126;11.546;2022-07-29T06:41:29;24.70;81.30
9179;DHT22;4624;48.126;11.546;2022-07-29T06:43:56;24.80;80.70
9179;DHT22;4624;48.126;11.546;2022-07-29T06:46:23;24.90;80.00
9179;DHT22;4624;48.126;11.546;2022-07-29T06:48:50;25.00;79.50
9179;DHT22;4624;48.126;11.546;2022-07-29T06:51:19;25.00;79.80
9179;DHT22;4624;48.126;11.546;2022-07-29T06:53:46;25.00;79.00
9179;DHT22;4624;48.126;11.546;2022-07-29T06:56:12;25.10;79.10
9179;DHT22;4624;48.126;11.546;2022-07-29T06:58:39;25.10;79.40
9179;DHT22;4624;48.126;11.546;2022-07-29T07:01:06;25.30;78.30
9179;DHT22;4624;48.126;11.546;2022-07-29T07:03:33;25.50;78.80
9179;DHT22;4624;48.126;11.546;2022-07-29T07:06:00;25.70;79.00
9179;DHT22;4624;48.126;11.546;2022-07-29T07:08:28;25.80;77.90
9179;DHT22;4624;48.126;11.546;2022-07-29T07:10:55;26.00;77.20
9179;DHT22;4624;48.126;11.546;2022-07-29T07:13:22;26.20;76.40
9179;DHT22;4624;48.126;11.546;2022-07-29T07:15:49;26.40;75.50
9179;DHT22;4624;48.126;11.546;2022-07-29T07:18:18;26.50;75.20
9179;DHT22;4624;48.126;11.546;2022-07-29T07:20:45;26.70;74.80
9179;DHT22;4624;48.126;11.546;2022-07-29T07:23:12;26.80;72.80
9179;DHT22;4624;48.126;11.546;2022-07-29T07:25:41;26.90;71.20
9179;DHT22;4624;48.126;11.546;2022-07-29T07:28:08;27.00;71.60
9179;DHT22;4624;48.126;11.546;2022-07-29T07:30:35;27.20;70.40
9179;DHT22;4624;48.126;11.546;2022-07-29T07:33:02;27.30;69.60
9179;DHT22;4624;48.126;11.546;2022-07-29T07:35:30;27.40;69.20
9179;DHT22;4624;48.126;11.546;2022-07-29T07:37:57;27.50;68.80
9179;DHT22;4624;48.126;11.546;2022-07-29T07:40:24;27.70;67.60
9179;DHT22;4624;48.126;11.546;2022-07-29T07:42:52;27.90;67.30
9179;DHT22;4624;48.126;11.546;2022-07-29T07:45:19;28.00;66.20
9179;DHT22;4624;48.126;11.546;2022-07-29T07:47:46;28.10;65.50
9179;DHT22;4624;48.126;11.546;2022-07-29T07:50:13;28.20;63.80
9179;DHT22;4624;48.126;11.546;2022-07-29T07:52:47;28.30;62.70
9179;DHT22;4624;48.126;11.546;2022-07-29T07:55:15;28.50;63.20
9179;DHT22;4624;48.126;11.546;2022-07-29T07:57:42;28.60;60.80
9179;DHT22;4624;48.126;11.546;2022-07-29T08:00:12;28.70;60.90
9179;DHT22;4624;48.126;11.546;2022-07-29T08:02:39;28.90;60.80
9179;DHT22;4624;48.126;11.546;2022-07-29T08:05:06;29.00;60.50
9179;DHT22;4624;48.126;11.546;2022-07-29T08:07:33;29.20;60.10
9179;DHT22;4624;48.126;11.546;2022-07-29T08:10:01;29.50;59.40
9179;DHT22;4624;48.126;11.546;2022-07-29T08:12:28;29.70;59.10
9179;DHT22;4624;48.126;11.546;2022-07-29T08:14:55;29.80;58.50
9179;DHT22;4624;48.126;11.546;2022-07-29T08:17:23;29.80;57.30
9179;DHT22;4624;48.126;11.546;2022-07-29T08:19:50;30.00;57.10
9179;DHT22;4624;48.126;11.546;2022-07-29T08:22:16;30.20;56.60
9179;DHT22;4624;48.126;11.546;2022-07-29T08:24:43;30.40;56.90
9179;DHT22;4624;48.126;11.546;2022-07-29T08:27:17;30.50;56.60
9179;DHT22;4624;48.126;11.546;2022-07-29T08:29:44;30.80;55.70
9179;DHT22;4624;48.126;11.546;2022-07-29T08:32:11;30.90;55.70
9179;DHT22;4624;48.126;11.546;2022-07-29T08:34:39;31.20;54.80
9179;DHT22;4624;48.126;11.546;2022-07-29T08:37:06;31.50;54.60
9179;DHT22;4624;48.126;11.546;2022-07-29T08:39:33;31.90;54.70
9179;DHT22;4624;48.126;11.546;2022-07-29T08:42:00;32.40;54.50
9179;DHT22;4624;48.126;11.546;2022-07-29T08:44:26;33.00;53.70
9179;DHT22;4624;48.126;11.546;2022-07-29T08:46:53;33.40;52.40
9179;DHT22;4624;48.126;11.546;2022-07-29T08:49:20;33.40;51.90
9179;DHT22;4624;48.126;11.546;2022-07-29T08:51:49;33.30;51.00
9179;DHT22;4624;48.126;11.546;2022-07-29T08:54:17;33.00;50.80
9179;DHT22;4624;48.126;11.546;2022-07-29T08:56:45;32.90;51.00
9179;DHT22;4624;48.126;11.546;2022-07-29T08:59:14;32.50;50.60
9179;DHT22;4624;48.126;11.546;2022-07-29T09:01:43;32.20;51.10
9179;DHT22;4624;48.126;11.546;2022-07-29T09:04:11;31.90;51.60
9179;DHT22;4624;48.126;11.546;2022-07-29T09:06:43;31.60;52.20
9179;DHT22;4624;48.126;11.546;2022-07-29T09:09:13;31.70;52.70
9179;DHT22;4624;48.126;11.546;2022-07-29T09:11:41;32.00;52.20
9179;DHT22;4624;48.126;11.546;2022-07-29T09:14:08;32.50;51.30
9179;DHT22;4624;48.126;11.546;2022-07-29T09:16:49;32.80;51.30
9179;DHT22;4624;48.126;11.546;2022-07-29T09:19:30;33.20;51.10
9179;DHT22;4624;48.126;11.546;2022-07-29T09:21:58;33.60;50.90
9179;DHT22;4624;48.126;11.546;2022-07-29T09:24:37;33.90;50.30
9179;DHT22;4624;48.126;11.546;2022-07-29T09:27:09;34.50;49.60
9179;DHT22;4624;48.126;11.546;2022-07-29T09:29:37;35.20;48.80
9179;DHT22;4624;48.126;11.546;2022-07-29T09:32:06;36.10;48.30
9179;DHT22;4624;48.126;11.546;2022-07-29T09:34:34;36.20;46.20
9179;DHT22;4624;48.126;11.546;2022-07-29T09:37:03;35.80;45.80
9179;DHT22;4624;48.126;11.546;2022-07-29T09:39:34;35.40;46.30
9179;DHT22;4624;48.126;11.546;2022-07-29T09:42:03;35.10;46.60
9179;DHT22;4624;48.126;11.546;2022-07-29T09:44:44;34.90;46.70
9179;DHT22;4624;48.126;11.546;2022-07-29T09:47:12;34.20;47.30
9179;DHT22;4624;48.126;11.546;2022-07-29T09:49:54;33.30;48.10
9179;DHT22;4624;48.126;11.546;2022-07-29T09:52:24;32.30;49.50
9179;DHT22;4624;48.126;11.546;2022-07-29T09:54:52;31.50;50.70
9179;DHT22;4624;48.126;11.546;2022-07-29T09:57:25;31.00;51.80
9179;DHT22;4624;48.126;11.546;2022-07-29T10:00:05;30.60;53.00
9179;DHT22;4624;48.126;11.546;2022-07-29T10:02:33;30.30;53.40
9179;DHT22;4624;48.126;11.546;2022-07-29T10:05:02;30.00;53.80
9179;DHT22;4624;48.126;11.546;2022-07-29T10:07:43;29.60;54.40
9179;DHT22;4624;48.126;11.546;2022-07-29T10:10:19;29.20;55.10
9179;DHT22;4624;48.126;11.546;2022-07-29T10:12:49;28.80;55.80
9179;DHT22;4624;48.126;11.546;2022-07-29T10:15:16;28.60;56.40
9179;DHT22;4624;48.126;11.546;2022-07-29T10:17:44;28.50;56.80
9179;DHT22;4624;48.126;11.546;2022-07-29T10:20:11;28.40;57.10
9179;DHT22;4624;48.126;11.546;2022-07-29T10:22:39;28.30;57.70
9179;DHT22;4624;48.126;11.546;2022-07-29T10:25:07;28.40;57.90
9179;DHT22;4624;48.126;11.546;2022-07-29T10:27:36;28.60;58.00
9179;DHT22;4624;48.126;11.546;2022-07-29T10:30:05;28.70;57.90
9179;DHT22;4624;48.126;11.546;2022-07-29T10:32:54;28.70;58.10
9179;DHT22;4624;48.126;11.546;2022-07-29T10:35:48;28.60;58.60
9179;DHT22;4624;48.126;11.546;2022-07-29T10:38:47;28.50;58.60
9179;DHT22;4624;48.126;11.546;2022-07-29T10:41:36;28.60;58.60
9179;DHT22;4624;48.126;11.546;2022-07-29T10:44:16;28.50;58.60
9179;DHT22;4624;48.126;11.546;2022-07-29T10:46:44;28.60;58.60
9179;DHT22;4624;48.126;11.546;2022-07-29T10:49:12;29.30;58.30
9179;DHT22;4624;48.126;11.546;2022-07-29T10:52:00;31.10;56.80
9179;DHT22;4624;48.126;11.546;2022-07-29T10:54:41;33.00;53.60
9179;DHT22;4624;48.126;11.546;2022-07-29T10:57:14;33.60;51.60
9179;DHT22;4624;48.126;11.546;2022-07-29T10:59:43;34.10;51.20
9179;DHT22;4624;48.126;11.546;2022-07-29T11:02:45;35.10;49.40
9179;DHT22;4624;48.126;11.546;2022-07-29T11:05:17;35.70;48.50
9179;DHT22;4624;48.126;11.546;2022-07-29T11:10:47;37.40;46.40
9179;DHT22;4624;48.126;11.546;2022-07-29T11:13:46;38.40;44.40
9179;DHT22;4624;48.126;11.546;2022-07-29T11:16:15;39.00;43.20
9179;DHT22;4624;48.126;11.546;2022-07-29T11:21:45;39.30;40.70
9179;DHT22;4624;48.126;11.546;2022-07-29T11:24:14;40.00;40.50
9179;DHT22;4624;48.126;11.546;2022-07-29T11:26:42;40.30;39.40
9179;DHT22;4624;48.126;11.546;2022-07-29T11:29:18;39.80;38.20
9179;DHT22;4624;48.126;11.546;2022-07-29T11:31:50;39.10;38.50
9179;DHT22;4624;48.126;11.546;2022-07-29T11:34:24;37.80;39.50
9179;DHT22;4624;48.126;11.546;2022-07-29T11:37:18;36.90;41.00
9179;DHT22;4624;48.126;11.546;2022-07-29T11:39:46;36.40;42.00
9179;DHT22;4624;48.126;11.546;2022-07-29T11:42:39;35.40;43.10
9179;DHT22;4624;48.126;11.546;2022-07-29T11:45:07;34.60;44.50
9179;DHT22;4624;48.126;11.546;2022-07-29T11:47:38;33.80;45.40
9179;DHT22;4624;48.126;11.546;2022-07-29T11:50:07;33.10;46.70
9179;DHT22;4624;48.126;11.546;2022-07-29T11:52:35;32.60;47.60
9179;DHT22;4624;48.126;11.546;2022-07-29T11:55:04;32.20;47.60
9179;DHT22;4624;48.126;11.546;2022-07-29T11:57:31;32.00;48.00
9179;DHT22;4624;48.126;11.546;2022-07-29T12:00:00;31.80;48.20
9179;DHT22;4624;48.126;11.546;2022-07-29T12:02:40;31.50;48.90
9179;DHT22;4624;48.126;11.546;2022-07-29T12:05:08;31.50;49.40
9179;DHT22;4624;48.126;11.546;2022-07-29T12:07:37;31.40;49.80
9179;DHT22;4624;48.126;11.546;2022-07-29T12:10:05;31.20;50.00
9179;DHT22;4624;48.126;11.546;2022-07-29T12:12:33;31.10;49.90
9179;DHT22;4624;48.126;11.546;2022-07-29T12:15:14;30.90;50.10
9179;DHT22;4624;48.126;11.546;2022-07-29T12:17:44;31.00;50.90
9179;DHT22;4624;48.126;11.546;2022-07-29T12:20:11;30.80;50.80
9179;DHT22;4624;48.126;11.546;2022-07-29T12:22:40;30.70;51.40
9179;DHT22;4624;48.126;11.546;2022-07-29T12:25:11;30.60;51.40
9179;DHT22;4624;48.126;11.546;2022-07-29T12:27:41;30.50;51.30
9179;DHT22;4624;48.126;11.546;2022-07-29T12:30:10;30.50;51.70
9179;DHT22;4624;48.126;11.546;2022-07-29T12:32:39;30.30;51.60
9179;DHT22;4624;48.126;11.546;2022-07-29T12:35:09;30.20;52.10
9179;DHT22;4624;48.126;11.546;2022-07-29T12:37:38;30.10;52.30
9179;DHT22;4624;48.126;11.546;2022-07-29T12:40:08;30.20;52.90
9179;DHT22;4624;48.126;11.546;2022-07-29T12:42:35;30.30;52.70
9179;DHT22;4624;48.126;11.546;2022-07-29T12:45:03;30.40;52.00
9179;DHT22;4624;48.126;11.546;2022-07-29T12:47:30;30.50;52.20
9179;DHT22;4624;48.126;11.546;2022-07-29T12:50:17;30.60;52.40
9179;DHT22;4624;48.126;11.546;2022-07-29T12:52:45;30.70;52.90
9179;DHT22;4624;48.126;11.546;2022-07-29T12:55:14;30.50;52.00
9179;DHT22;4624;48.126;11.546;2022-07-29T12:57:47;30.30;52.10
9179;DHT22;4624;48.126;11.546;2022-07-29T13:00:16;30.00;52.30
9179;DHT22;4624;48.126;11.546;2022-07-29T13:02:55;29.80;52.50
9179;DHT22;4624;48.126;11.546;2022-07-29T13:05:24;29.50;52.50
9179;DHT22;4624;48.126;11.546;2022-07-29T13:08:10;29.30;53.00
9179;DHT22;4624;48.126;11.546;2022-07-29T13:10:37;29.10;53.60
9179;DHT22;4624;48.126;11.546;2022-07-29T13:13:05;28.90;53.90
9179;DHT22;4624;48.126;11.546;2022-07-29T13:15:34;28.80;54.40
9179;DHT22;4624;48.126;11.546;2022-07-29T13:18:01;28.70;54.60
9179;DHT22;4624;48.126;11.546;2022-07-29T13:20:29;28.60;54.90
9179;DHT22;4624;48.126;11.546;2022-07-29T13:22:57;28.40;55.30
9179;DHT22;4624;48.126;11.546;2022-07-29T13:25:26;28.20;55.50
9179;DHT22;4624;48.126;11.546;2022-07-29T13:27:53;28.10;56.00
9179;DHT22;4624;48.126;11.546;2022-07-29T13:30:22;27.90;56.50
9179;DHT22;4624;48.126;11.546;2022-07-29T13:32:49;27.70;57.00
9179;DHT22;4624;48.126;11.546;2022-07-29T13:35:15;27.70;57.50
9179;DHT22;4624;48.126;11.546;2022-07-29T13:37:44;27.60;57.60
9179;DHT22;4624;48.126;11.546;2022-07-29T13:40:12;27.50;58.50
9179;DHT22;4624;48.126;11.546;2022-07-29T13:42:39;27.40;57.80
9179;DHT22;4624;48.126;11.546;2022-07-29T13:45:08;27.40;57.90
9179;DHT22;4624;48.126;11.546;2022-07-29T13:47:35;27.40;58.00
9179;DHT22;4624;48.126;11.546;2022-07-29T13:50:02;27.40;58.10
9179;DHT22;4624;48.126;11.546;2022-07-29T13:52:29;27.40;58.40
9179;DHT22;4624;48.126;11.546;2022-07-29T13:54:57;27.40;58.50
9179;DHT22;4624;48.126;11.546;2022-07-29T13:57:24;27.40;58.60
9179;DHT22;4624;48.126;11.546;2022-07-29T13:59:51;27.50;58.70
9179;DHT22;4624;48.126;11.546;2022-07-29T14:02:18;27.60;58.60
9179;DHT22;4624;48.126;11.546;2022-07-29T14:04:45;27.70;58.80
9179;DHT22;4624;48.126;11.546;2022-07-29T14:07:11;27.90;58.80
9179;DHT22;4624;48.126;11.546;2022-07-29T14:09:38;27.90;58.20
9179;DHT22;4624;48.126;11.546;2022-07-29T14:12:07;27.90;58.40
9179;DHT22;4624;48.126;11.546;2022-07-29T14:14:34;27.90;58.60
9179;DHT22;4624;48.126;11.546;2022-07-29T14:17:02;28.00;58.60
9179;DHT22;4624;48.126;11.546;2022-07-29T14:19:31;27.90;58.40
9179;DHT22;4624;48.126;11.546;2022-07-29T14:22:01;28.00;58.30
9179;DHT22;4624;48.126;11.546;2022-07-29T14:24:28;28.00;58.20
9179;DHT22;4624;48.126;11.546;2022-07-29T14:26:55;28.10;58.30
9179;DHT22;4624;48.126;11.546;2022-07-29T14:29:23;28.10;58.30
9179;DHT22;4624;48.126;11.546;2022-07-29T14:31:50;28.10;58.30
9179;DHT22;4624;48.126;11.546;2022-07-29T14:34:17;28.10;58.30
9179;DHT22;4624;48.126;11.546;2022-07-29T14:36:43;28.10;58.00
9179;DHT22;4624;48.126;11.546;2022-07-29T14:39:10;28.00;58.00
9179;DHT22;4624;48.126;11.546;2022-07-29T14:41:37;27.90;57.60
9179;DHT22;4624;48.126;11.546;2022-07-29T14:44:04;27.90;57.50
9179;DHT22;4624;48.126;11.546;2022-07-29T14:46:32;27.90;57.80
9179;DHT22;4624;48.126;11.546;2022-07-29T14:48:59;27.90;57.70
9179;DHT22;4624;48.126;11.546;2022-07-29T14:51:26;27.80;57.40
9179;DHT22;4624;48.126;11.546;2022-07-29T14:53:53;27.80;57.70
9179;DHT22;4624;48.126;11.546;2022-07-29T14:56:21;27.80;57.80
9179;DHT22;4624;48.126;11.546;2022-07-29T14:58:48;27.60;58.00
9179;DHT22;4624;48.126;11.546;2022-07-29T15:01:15;27.50;58.20
9179;DHT22;4624;48.126;11.546;2022-07-29T15:03:43;27.50;58.50
9179;DHT22;4624;48.126;11.546;2022-07-29T15:06:10;27.50;58.70
9179;DHT22;4624;48.126;11.546;2022-07-29T15:08:37;27.50;58.60
9179;DHT22;4624;48.126;11.546;2022-07-29T15:11:04;27.40;58.60
9179;DHT22;4624;48.126;11.546;2022-07-29T15:13:31;27.30;59.30
9179;DHT22;4624;48.126;11.546;2022-07-29T15:15:58;27.20;58.70
9179;DHT22;4624;48.126;11.546;2022-07-29T15:18:24;27.10;58.70
9179;DHT22;4624;48.126;11.546;2022-07-29T15:20:53;27.10;58.80
9179;DHT22;4624;48.126;11.546;2022-07-29T15:23:19;27.10;59.00
9179;DHT22;4624;48.126;11.546;2022-07-29T15:25:46;27.10;59.10
9179;DHT22;4624;48.126;11.546;2022-07-29T15:28:13;27.00;59.20
9179;DHT22;4624;48.126;11.546;2022-07-29T15:30:40;27.00;59.40
9179;DHT22;4624;48.126;11.546;2022-07-29T15:33:08;27.00;59.60
9179;DHT22;4624;48.126;11.546;2022-07-29T15:35:35;27.10;60.10
9179;DHT22;4624;48.126;11.546;2022-07-29T15:38:03;27.00;60.70
9179;DHT22;4624;48.126;11.546;2022-07-29T15:40:30;26.90;61.20
9179;DHT22;4624;48.126;11.546;2022-07-29T15:42:57;26.90;61.90
9179;DHT22;4624;48.126;11.546;2022-07-29T15:45:26;26.80;63.00
9179;DHT22;4624;48.126;11.546;2022-07-29T15:47:53;26.70;63.80
9179;DHT22;4624;48.126;11.546;2022-07-29T15:50:20;26.70;64.60
9179;DHT22;4624;48.126;11.546;2022-07-29T15:52:47;26.60;64.60
9179;DHT22;4624;48.126;11.546;2022-07-29T15:55:15;26.40;65.70
9179;DHT22;4624;48.126;11.546;2022-07-29T15:57:42;26.30;65.20
9179;DHT22;4624;48.126;11.546;2022-07-29T16:00:10;26.30;65.40
9179;DHT22;4624;48.126;11.546;2022-07-29T16:02:38;26.20;66.00
9179;DHT22;4624;48.126;11.546;2022-07-29T16:05:05;26.10;66.20
9179;DHT22;4624;48.126;11.546;2022-07-29T16:07:32;26.20;66.60
9179;DHT22;4624;48.126;11.546;2022-07-29T16:09:59;26.10;66.90